Webcam Rollhalt 06

Webcam Rollhalt 24

 

Metar - Laupheim Airfield

[Source: ADDS]
METAR
ETHL 111320Z 02007KT 9999 SCT050 SCT080 19/09 Q1022 BLU+ =
TAF

Notice: Undefined index: sun in /homepages/1/d158740339/htdocs/joomla/modules/mod_wx/tmpl/default.php on line 13

Metar - Augsburg Airfield

[Source: ADDS]
METAR
EDMA 111320Z 35005KT 320V030 9999 BKN043 BKN064 19/10 Q1023 =
EDMA 111100Z 1112/1121 02005KT 9999 SCT020 BKN030
TAF
EDMA 111100Z 1112/1121 02005KT 9999 SCT020 BKN030 =
SR / SS: 03:30 / 19:18 UTC (Günzburg 2020-07-11)

Metar - Memmingen Airfield

[Source: ADDS]
METAR
EDJA 111320Z 06003KT 010V120 9999 SCT022 18/13 Q1023 =
EDJA 111100Z 1112/1121 01006KT 9000 SCT010 BKN030 PROB30 TEMPO 1116/1118 TSRA BKN020CB
TAF
EDJA 111100Z 1112/1121 01006KT 9000 SCT010 BKN030 PROB30 TEMPO 1116/1118 TSRA BKN020CB =

Notice: Undefined index: sun in /homepages/1/d158740339/htdocs/joomla/modules/mod_wx/tmpl/default.php on line 13

Metar - Neuburg/Donau Airfield

[Source: ADDS]
METAR
ETSN 111320Z 34005KT 9999 SCT042 BKN260 21/10 Q1023 BLU+ =
ETSN 111305Z 1114/1123 35005KT 9999 NSW SCT040 SCT260 PROB30 1114/1120 01010KT 4000 SHRA BKN020TCU BY ETGL
TAF
ETSN 111305Z 1114/1123 35005KT 9999 NSW SCT040 SCT260 PROB30 1114/1120 01010KT 4000 SHRA BKN020TCU BY ETGL =

Notice: Undefined index: sun in /homepages/1/d158740339/htdocs/joomla/modules/mod_wx/tmpl/default.php on line 13

Metar - Stuttgart Airfield

[Source: ADDS]
METAR
EDDS 111320Z AUTO 29007KT 240V330 //// R25/P2000N // ///////// 21/06 Q1023 NOSIG =
EDDS 111100Z 1112/1212 36008KT 9999 SCT040 BECMG 1120/1122 VRB03KT BECMG 1207/1209 04007KT
TAF
EDDS 111100Z 1112/1212 36008KT 9999 SCT040 BECMG 1120/1122 VRB03KT BECMG 1207/1209 04007KT =

Notice: Undefined index: sun in /homepages/1/d158740339/htdocs/joomla/modules/mod_wx/tmpl/default.php on line 13

Metar - Niederstetten Airfield

[Source: ADDS]
METAR
ETHN 111320Z 35008KT 9999 SCT050 20/05 Q1023 BLU+ =
TAF

Notice: Undefined index: sun in /homepages/1/d158740339/htdocs/joomla/modules/mod_wx/tmpl/default.php on line 13